Time;durP1;ratioP1;P1;durP2;ratioP2;P2;SDS_P1;SDS_P2;PMS_P1;PMS_P2;Temp;Humidity;BMP_temperature;BMP_pressure;BME280_temperature;BME280_humidity;BME280_pressure;Samples;Min_cycle;Max_cycle;Signal;HPM_P1;HPM_P2
2023/09/13 00:00:55;;;;;;;10.63;8.87;;;25.50;79.70;;;;;;5070118;28;20176;-67
2023/09/13 00:03:22;;;;;;;12.77;9.13;;;25.40;67.80;;;;;;5071778;28;20579;-68
2023/09/13 00:05:50;;;;;;;15.57;10.47;;;25.20;64.80;;;;;;5072006;28;20209;-67
2023/09/13 00:08:17;;;;;;;14.77;10.57;;;25.20;67.00;;;;;;5072420;28;20191;-66
2023/09/13 00:10:44;;;;;;;7.37;6.17;;;26.00;68.30;;;;;;5072130;28;20558;-67
2023/09/13 00:13:13;;;;;;;9.17;6.30;;;25.80;55.70;;;;;;5071152;28;20180;-66
2023/09/13 00:15:46;;;;;;;9.97;6.80;;;25.50;58.80;;;;;;5071446;28;20184;-67
2023/09/13 00:18:17;;;;;;;8.37;6.77;;;25.80;58.50;;;;;;5071984;28;20245;-67
2023/09/13 00:20:44;;;;;;;9.73;6.93;;;26.10;53.40;;;;;;5071930;28;20187;-67
2023/09/13 00:23:12;;;;;;;7.93;6.70;;;25.70;56.60;;;;;;5071058;28;20575;-67
2023/09/13 00:25:39;;;;;;;7.47;6.33;;;25.70;49.80;;;;;;5071997;28;20168;-68
2023/09/13 00:31:28;;;;;;;7.23;6.37;;;26.10;52.40;;;;;;5050419;28;20190;-68
2023/09/13 00:33:55;;;;;;;8.20;6.43;;;26.10;51.90;;;;;;5069707;28;20180;-68
2023/09/13 00:36:23;;;;;;;10.53;6.20;;;26.10;48.20;;;;;;5071963;28;20172;-68
2023/09/13 00:38:50;;;;;;;9.70;7.00;;;26.20;49.40;;;;;;5070445;28;20613;-67
2023/09/13 00:41:17;;;;;;;9.40;7.07;;;26.10;48.20;;;;;;5071741;28;20202;-66
2023/09/13 00:43:44;;;;;;;9.80;7.20;;;26.80;45.20;;;;;;5071738;28;20687;-67
2023/09/13 00:46:12;;;;;;;8.77;7.33;;;27.00;46.50;;;;;;5069777;28;20550;-67
2023/09/13 00:48:41;;;;;;;8.60;7.77;;;27.10;41.60;;;;;;5071694;28;20179;-67
2023/09/13 00:51:10;;;;;;;10.23;8.43;;;26.50;42.80;;;;;;5070007;28;20176;-67
2023/09/13 00:53:38;;;;;;;7.83;7.13;;;26.80;41.90;;;;;;5071045;28;20601;-67
2023/09/13 00:56:06;;;;;;;8.53;7.10;;;26.80;40.80;;;;;;5071344;28;20169;-67
2023/09/13 00:58:35;;;;;;;11.33;8.03;;;26.50;42.30;;;;;;5071544;28;20187;-68
2023/09/13 01:01:02;;;;;;;8.63;7.33;;;26.40;42.00;;;;;;5071091;28;20662;-68
2023/09/13 01:03:31;;;;;;;9.90;8.37;;;26.40;47.30;;;;;;5071281;28;20223;-68
2023/09/13 01:05:59;;;;;;;12.13;7.60;;;26.50;43.80;;;;;;5071571;28;20226;-67
2023/09/13 01:08:27;;;;;;;12.37;7.27;;;26.70;41.40;;;;;;5071099;28;20214;-68
2023/09/13 01:10:54;;;;;;;6.63;5.90;;;27.10;39.10;;;;;;5071455;28;20564;-68
2023/09/13 01:13:22;;;;;;;8.40;6.90;;;27.20;37.30;;;;;;5070900;28;20216;-68
2023/09/13 01:16:15;;;;;;;10.77;6.73;;;27.10;39.10;;;;;;5070769;28;20575;-68
2023/09/13 01:19:12;;;;;;;9.17;7.23;;;27.80;36.90;;;;;;5070137;28;20522;-68
2023/09/13 01:21:46;;;;;;;7.03;5.67;;;28.10;38.50;;;;;;5070636;28;20306;-68
2023/09/13 01:24:33;;;;;;;6.37;5.67;;;28.10;39.10;;;;;;5071129;28;20215;-67
2023/09/13 01:27:47;;;;;;;11.23;5.03;;;28.00;36.00;;;;;;5071412;28;20197;-68
2023/09/13 01:30:17;;;;;;;6.77;5.30;;;27.70;38.40;;;;;;5047145;28;20381;-67
2023/09/13 01:32:46;;;;;;;10.47;6.07;;;27.70;35.40;;;;;;5048872;28;20725;-67
2023/09/13 01:35:14;;;;;;;9.40;7.00;;;27.60;37.20;;;;;;5060524;28;20192;-67
2023/09/13 01:37:41;;;;;;;9.20;6.13;;;27.50;37.00;;;;;;5070738;28;20180;-68
2023/09/13 01:40:09;;;;;;;9.20;5.77;;;27.70;39.20;;;;;;5070494;28;20180;-67
2023/09/13 01:42:45;;;;;;;9.73;5.73;;;27.80;37.50;;;;;;5072851;28;20241;-67
2023/09/13 01:45:14;;;;;;;7.90;5.50;;;27.80;36.80;;;;;;5074097;28;20197;-67
2023/09/13 01:47:45;;;;;;;9.47;5.70;;;27.90;35.80;;;;;;5074651;28;20180;-68
2023/09/13 01:50:14;;;;;;;6.90;5.60;;;27.60;35.40;;;;;;5074428;28;20559;-67
2023/09/13 01:52:42;;;;;;;7.17;5.53;;;28.50;35.40;;;;;;5074031;28;20180;-68
2023/09/13 01:55:10;;;;;;;10.70;6.00;;;28.40;37.40;;;;;;5074512;28;20172;-69
2023/09/13 01:57:37;;;;;;;6.30;5.23;;;28.50;33.90;;;;;;5072935;28;20184;-67
2023/09/13 02:00:05;;;;;;;5.50;4.33;;;28.60;33.60;;;;;;5073840;28;20578;-67
2023/09/13 02:02:32;;;;;;;5.33;3.43;;;28.90;30.20;;;;;;5074171;28;20748;-68
2023/09/13 02:05:00;;;;;;;7.00;4.13;;;28.50;30.40;;;;;;5074340;28;20540;-68
2023/09/13 02:07:28;;;;;;;5.03;3.80;;;28.60;29.20;;;;;;5060468;28;20259;-68
2023/09/13 02:09:55;;;;;;;5.25;4.00;;;28.30;28.90;;;;;;5070080;28;20237;-68
2023/09/13 02:12:22;;;;;;;6.13;3.37;;;27.80;29.30;;;;;;5073581;28;20184;-68
2023/09/13 02:14:49;;;;;;;4.80;3.63;;;27.30;32.30;;;;;;5073880;28;20195;-68
2023/09/13 02:17:18;;;;;;;4.07;3.33;;;27.10;31.70;;;;;;5075727;28;20266;-68
2023/09/13 02:19:49;;;;;;;4.23;2.60;;;27.30;30.20;;;;;;5080849;28;20749;-68
2023/09/13 02:22:17;;;;;;;5.53;2.50;;;27.60;29.10;;;;;;5086921;28;20227;-68
2023/09/13 02:24:44;;;;;;;3.23;2.50;;;28.20;27.70;;;;;;5073009;28;20192;-67
2023/09/13 02:27:12;;;;;;;3.43;2.70;;;28.10;29.60;;;;;;5073067;28;20211;-68
2023/09/13 02:29:39;;;;;;;9.27;2.83;;;28.80;26.50;;;;;;5072973;28;20184;-67
2023/09/13 02:32:07;;;;;;;4.20;3.17;;;29.00;26.10;;;;;;5073037;28;20168;-68
2023/09/13 02:34:34;;;;;;;6.10;2.90;;;29.40;28.40;;;;;;5073516;28;20214;-68
2023/09/13 02:37:01;;;;;;;3.63;3.30;;;29.60;27.30;;;;;;5072779;28;20168;-66
2023/09/13 02:39:35;;;;;;;5.87;3.30;;;29.50;27.70;;;;;;5072143;28;20195;-67
2023/09/13 02:42:07;;;;;;;4.25;3.03;;;29.40;26.10;;;;;;5073130;28;20206;-67
2023/09/13 02:44:35;;;;;;;3.57;2.77;;;29.50;25.10;;;;;;5072566;28;20204;-66
2023/09/13 02:47:02;;;;;;;5.65;2.60;;;29.30;22.40;;;;;;5074254;28;20637;-67
2023/09/13 02:49:30;;;;;;;3.60;2.93;;;29.20;24.20;;;;;;5074185;28;20195;-67
2023/09/13 02:51:57;;;;;;;2.60;2.40;;;29.00;23.70;;;;;;5073310;28;20180;-67
2023/09/13 02:54:24;;;;;;;3.97;2.80;;;28.50;22.60;;;;;;5074163;28;20184;-69
2023/09/13 02:56:55;;;;;;;4.07;2.60;;;28.50;23.70;;;;;;5074828;28;20176;-68
2023/09/13 02:59:22;;;;;;;4.55;2.75;;;28.60;23.00;;;;;;5074347;28;20207;-70
2023/09/13 03:01:50;;;;;;;3.73;2.90;;;28.40;26.10;;;;;;5074511;28;20176;-68
2023/09/13 03:04:17;;;;;;;6.35;2.75;;;28.30;24.60;;;;;;5074311;28;20622;-69
2023/09/13 03:06:45;;;;;;;4.97;2.60;;;28.60;23.90;;;;;;5074459;28;20225;-70
2023/09/13 03:09:13;;;;;;;3.77;3.03;;;28.90;22.10;;;;;;5074297;28;20225;-69
2023/09/13 03:11:40;;;;;;;5.72;3.42;;;28.90;23.70;;;;;;5074182;28;20265;-68
2023/09/13 03:14:08;;;;;;;5.03;3.60;;;28.90;22.40;;;;;;5074166;28;20750;-68
2023/09/13 03:16:35;;;;;;;8.80;4.95;;;28.70;23.70;;;;;;5074267;28;20222;-69
2023/09/13 03:19:04;;;;;;;7.87;5.10;;;28.50;24.00;;;;;;5074198;28;20180;-68
2023/09/13 03:21:31;;;;;;;9.77;5.77;;;28.40;26.40;;;;;;5056046;28;20720;-68
2023/09/13 03:23:58;;;;;;;7.63;5.67;;;28.60;25.90;;;;;;5072464;28;20230;-69
2023/09/13 03:26:27;;;;;;;8.10;6.33;;;28.50;23.70;;;;;;5074052;28;20258;-68
2023/09/13 03:28:57;;;;;;;12.40;6.93;;;28.30;24.40;;;;;;5073614;28;20316;-68
2023/09/13 03:31:26;;;;;;;10.63;7.43;;;28.20;23.80;;;;;;5072510;28;20617;-67
2023/09/13 03:33:56;;;;;;;11.90;9.33;;;28.30;24.40;;;;;;5074325;28;20202;-69
2023/09/13 03:36:27;;;;;;;12.67;9.23;;;28.30;23.20;;;;;;5074143;28;20641;-69
2023/09/13 03:38:55;;;;;;;10.60;8.43;;;28.10;24.10;;;;;;5073492;28;20164;-68
2023/09/13 03:41:23;;;;;;;10.53;7.40;;;28.00;25.30;;;;;;5073844;28;20938;-68
2023/09/13 03:43:51;;;;;;;10.20;7.87;;;28.00;21.70;;;;;;5073470;28;20208;-70
2023/09/13 03:46:19;;;;;;;9.87;7.37;;;27.80;22.00;;;;;;5073685;28;20168;-68
2023/09/13 03:48:47;;;;;;;13.93;8.23;;;27.80;23.70;;;;;;5073554;28;20253;-67
2023/09/13 03:51:34;;;;;;;14.33;9.57;;;27.60;24.00;;;;;;5073601;28;20168;-69
2023/09/13 03:54:01;;;;;;;17.67;11.80;;;27.20;24.40;;;;;;5066409;28;20665;-68
2023/09/13 03:56:29;;;;;;;19.57;13.30;;;27.30;24.90;;;;;;5073506;28;20222;-69
2023/09/13 03:58:56;;;;;;;20.40;15.30;;;27.30;25.80;;;;;;5073324;28;20207;-68
2023/09/13 04:01:24;;;;;;;23.70;16.13;;;27.20;25.70;;;;;;5073594;28;20179;-70
2023/09/13 04:03:51;;;;;;;22.17;17.80;;;27.10;26.60;;;;;;5072905;28;20207;-69
2023/09/13 04:06:18;;;;;;;18.73;15.53;;;27.30;27.70;;;;;;5072923;28;20206;-68
2023/09/13 04:08:46;;;;;;;18.63;14.37;;;27.70;25.60;;;;;;5073275;28;20180;-68
2023/09/13 04:11:13;;;;;;;21.90;15.40;;;27.70;23.90;;;;;;5073174;28;20168;-69
2023/09/13 04:13:40;;;;;;;18.90;13.73;;;27.60;26.40;;;;;;5073166;28;20673;-68
2023/09/13 04:16:08;;;;;;;15.77;13.77;;;27.50;24.60;;;;;;5073147;28;20184;-68
2023/09/13 04:18:35;;;;;;;23.70;14.97;;;27.50;25.80;;;;;;5073532;28;20180;-71
2023/09/13 04:21:03;;;;;;;20.70;14.87;;;27.20;23.10;;;;;;5072880;28;20239;-69
2023/09/13 04:23:30;;;;;;;18.83;14.93;;;27.30;22.90;;;;;;5073146;28;20212;-68
2023/09/13 04:26:01;;;;;;;19.83;13.80;;;27.20;23.20;;;;;;5073476;28;20200;-67
2023/09/13 04:28:29;;;;;;;18.03;14.27;;;27.10;24.10;;;;;;5073090;28;20184;-68
2023/09/13 04:31:00;;;;;;;16.70;13.60;;;27.00;25.40;;;;;;5072899;28;20478;-69
2023/09/13 04:33:49;;;;;;;22.47;14.60;;;26.70;24.90;;;;;;5072993;28;20262;-68
2023/09/13 04:36:16;;;;;;;21.50;14.97;;;26.50;24.10;;;;;;5071768;28;20533;-69
2023/09/13 04:38:43;;;;;;;19.77;14.40;;;26.20;24.10;;;;;;5073083;28;20298;-67
2023/09/13 04:41:15;;;;;;;18.83;14.03;;;26.30;24.40;;;;;;5072756;28;20225;-69
2023/09/13 04:43:42;;;;;;;19.60;14.13;;;26.10;25.30;;;;;;5073025;28;20743;-68
2023/09/13 04:46:10;;;;;;;20.17;14.87;;;26.20;26.80;;;;;;5072802;28;20172;-69
2023/09/13 04:48:37;;;;;;;20.50;15.13;;;26.10;26.40;;;;;;5072819;28;20302;-72
2023/09/13 04:51:05;;;;;;;17.07;14.00;;;25.90;25.70;;;;;;5071373;28;20180;-70
2023/09/13 04:53:33;;;;;;;13.40;11.37;;;25.80;27.60;;;;;;5072729;28;20168;-70
2023/09/13 04:56:01;;;;;;;12.93;9.20;;;25.80;26.90;;;;;;5072717;28;20187;-68
2023/09/13 04:58:29;;;;;;;9.90;8.43;;;25.80;25.90;;;;;;5072917;28;20176;-67
2023/09/13 05:00:56;;;;;;;11.03;8.07;;;25.60;26.50;;;;;;5072827;28;20187;-68
2023/09/13 05:03:23;;;;;;;14.80;8.20;;;25.40;25.50;;;;;;5072759;28;20222;-69
2023/09/13 05:05:51;;;;;;;13.70;7.90;;;25.30;26.30;;;;;;5072532;28;20183;-69
2023/09/13 05:08:18;;;;;;;10.83;8.83;;;25.10;25.80;;;;;;5072633;28;20176;-68
2023/09/13 05:10:46;;;;;;;14.00;7.57;;;25.20;28.90;;;;;;5072651;28;20312;-68
2023/09/13 05:13:13;;;;;;;14.03;7.77;;;25.20;25.60;;;;;;5072402;28;20183;-68
2023/09/13 05:15:45;;;;;;;10.23;7.07;;;25.00;26.40;;;;;;5072981;28;20657;-68
2023/09/13 05:18:12;;;;;;;9.80;7.80;;;25.00;25.80;;;;;;5076412;28;20179;-68
2023/09/13 05:20:40;;;;;;;11.43;8.10;;;25.00;27.60;;;;;;5076563;28;20245;-68
2023/09/13 05:23:08;;;;;;;10.97;7.87;;;25.20;27.10;;;;;;5076028;28;20211;-69
2023/09/13 05:25:46;;;;;;;11.17;7.80;;;25.00;27.30;;;;;;5076522;28;20188;-68
2023/09/13 05:28:33;;;;;;;11.53;8.07;;;24.90;28.00;;;;;;5076340;28;20686;-68
2023/09/13 05:31:04;;;;;;;10.03;7.93;;;24.80;26.70;;;;;;5076434;28;20180;-68
2023/09/13 05:33:33;;;;;;;12.83;8.30;;;24.50;27.60;;;;;;5076369;28;20255;-67
2023/09/13 05:36:01;;;;;;;10.20;7.87;;;24.50;30.70;;;;;;5076390;28;20171;-69
2023/09/13 05:38:30;;;;;;;11.20;8.03;;;24.50;32.10;;;;;;5075940;28;20176;-69
2023/09/13 05:40:58;;;;;;;8.70;7.80;;;24.50;32.00;;;;;;5076099;28;20218;-69
2023/09/13 05:43:28;;;;;;;11.77;7.87;;;24.20;29.90;;;;;;5075749;28;20688;-68
2023/09/13 05:45:56;;;;;;;11.90;7.93;;;24.10;32.70;;;;;;5075998;28;20172;-68
2023/09/13 05:48:24;;;;;;;10.77;7.60;;;24.00;33.70;;;;;;5073669;28;20278;-69
2023/09/13 05:50:52;;;;;;;10.53;8.17;;;24.10;34.30;;;;;;5075872;28;20199;-69
2023/09/13 05:53:19;;;;;;;9.23;8.17;;;24.10;35.90;;;;;;5075834;28;20294;-69
2023/09/13 05:55:50;;;;;;;13.97;7.67;;;24.20;38.20;;;;;;5075641;28;20179;-69
2023/09/13 05:58:18;;;;;;;10.13;7.93;;;24.20;39.20;;;;;;5075589;28;20169;-69
2023/09/13 06:00:50;;;;;;;12.90;8.00;;;24.20;38.90;;;;;;5075668;28;20179;-69
2023/09/13 06:03:19;;;;;;;9.93;7.97;;;24.20;37.70;;;;;;5075471;28;20214;-66
2023/09/13 06:05:51;;;;;;;11.03;8.83;;;24.20;37.50;;;;;;5075600;28;20172;-67
2023/09/13 06:08:19;;;;;;;13.27;9.57;;;24.10;38.30;;;;;;5075315;28;20203;-67
2023/09/13 06:10:47;;;;;;;12.90;10.50;;;24.10;38.70;;;;;;5075664;28;20243;-68
2023/09/13 06:13:15;;;;;;;15.27;10.70;;;23.90;39.90;;;;;;5075243;28;20187;-68
2023/09/13 06:15:43;;;;;;;13.87;11.13;;;23.80;40.50;;;;;;5075476;28;20168;-67
2023/09/13 06:18:11;;;;;;;14.27;11.00;;;23.70;42.00;;;;;;5075288;28;20184;-69
2023/09/13 06:20:39;;;;;;;17.47;11.47;;;23.60;44.50;;;;;;5074236;28;20188;-67
2023/09/13 06:23:07;;;;;;;12.03;9.93;;;23.50;43.90;;;;;;5075133;28;20284;-67
2023/09/13 06:25:35;;;;;;;12.03;9.20;;;23.50;46.20;;;;;;5075418;28;20661;-67
2023/09/13 06:28:02;;;;;;;14.27;10.77;;;23.50;43.20;;;;;;5072836;28;20836;-67
2023/09/13 06:30:31;;;;;;;14.53;11.23;;;23.30;43.60;;;;;;5075189;28;20218;-69
2023/09/13 06:32:59;;;;;;;15.27;11.20;;;23.20;45.90;;;;;;5074984;28;20172;-66
2023/09/13 06:35:27;;;;;;;15.43;12.57;;;23.20;47.40;;;;;;5074926;28;20172;-69
2023/09/13 06:37:55;;;;;;;16.63;12.17;;;23.20;49.80;;;;;;5075099;28;20647;-68
2023/09/13 06:40:22;;;;;;;19.10;12.77;;;23.20;50.30;;;;;;5073481;28;20540;-69
2023/09/13 06:42:50;;;;;;;16.20;12.43;;;23.20;46.90;;;;;;5074821;28;20277;-69
2023/09/13 06:45:18;;;;;;;15.90;12.60;;;23.00;46.20;;;;;;5074843;28;20220;-68
2023/09/13 06:47:46;;;;;;;16.33;12.70;;;22.90;47.00;;;;;;5074705;28;20172;-69
2023/09/13 06:50:14;;;;;;;15.57;12.27;;;22.70;45.60;;;;;;5074591;28;20649;-68
2023/09/13 06:52:42;;;;;;;15.43;11.23;;;22.70;46.50;;;;;;5074466;28;20168;-69
2023/09/13 06:55:09;;;;;;;13.53;10.93;;;22.70;45.70;;;;;;5074528;28;20625;-70
2023/09/13 06:57:37;;;;;;;14.87;11.23;;;22.60;45.60;;;;;;5074423;28;20172;-69
2023/09/13 07:00:08;;;;;;;15.37;13.13;;;22.40;44.20;;;;;;5074377;28;20642;-68
2023/09/13 07:02:35;;;;;;;17.40;14.87;;;22.40;44.70;;;;;;5074486;28;20203;-69
2023/09/13 07:05:04;;;;;;;18.70;13.73;;;22.10;44.20;;;;;;5074462;28;20547;-69
2023/09/13 07:07:32;;;;;;;15.97;10.80;;;21.90;44.80;;;;;;5074248;28;20689;-68
2023/09/13 07:10:00;;;;;;;13.70;10.33;;;21.70;44.40;;;;;;5072865;28;20184;-69
2023/09/13 07:12:28;;;;;;;11.57;9.63;;;21.50;44.40;;;;;;5074195;28;20497;-68
2023/09/13 07:14:56;;;;;;;10.43;8.40;;;21.30;45.40;;;;;;5074199;28;20176;-68
2023/09/13 07:17:23;;;;;;;10.77;8.07;;;21.20;44.80;;;;;;5073455;28;20668;-68
2023/09/13 07:19:55;;;;;;;17.50;8.87;;;21.00;45.20;;;;;;5073789;28;20176;-70
2023/09/13 07:22:23;;;;;;;12.17;8.97;;;20.80;46.90;;;;;;5073880;28;20298;-68
2023/09/13 07:24:52;;;;;;;12.73;9.87;;;20.70;47.80;;;;;;5074059;28;20638;-68
2023/09/13 07:27:21;;;;;;;11.97;9.60;;;20.50;49.30;;;;;;5072612;28;20574;-69
2023/09/13 07:29:49;;;;;;;15.17;12.93;;;20.50;51.10;;;;;;5073779;28;20259;-68
2023/09/13 07:32:18;;;;;;;17.53;13.43;;;20.30;54.90;;;;;;5072414;28;20183;-68
2023/09/13 07:34:46;;;;;;;16.80;12.70;;;20.20;56.60;;;;;;5073693;28;20168;-67
2023/09/13 07:37:17;;;;;;;19.23;14.83;;;20.10;60.80;;;;;;5073691;28;20206;-69
2023/09/13 07:39:45;;;;;;;16.50;14.70;;;20.00;66.10;;;;;;5071934;28;20192;-69
2023/09/13 07:42:13;;;;;;;20.47;15.10;;;20.00;71.20;;;;;;5074072;28;20526;-67
2023/09/13 07:44:40;;;;;;;20.00;16.30;;;19.90;78.80;;;;;;5073611;28;20237;-68
2023/09/13 07:47:08;;;;;;;18.77;16.77;;;19.70;85.50;;;;;;5073644;28;20504;-68
2023/09/13 07:49:36;;;;;;;19.70;17.37;;;19.70;90.80;;;;;;5073367;28;20572;-69
2023/09/13 07:52:03;;;;;;;19.90;17.80;;;19.50;94.10;;;;;;5073397;28;20186;-68
2023/09/13 07:54:31;;;;;;;19.30;17.33;;;19.40;98.00;;;;;;5073492;28;20647;-68
2023/09/13 07:56:59;;;;;;;21.50;19.20;;;19.30;99.90;;;;;;5073345;28;20183;-69
2023/09/13 07:59:27;;;;;;;29.17;26.10;;;19.30;99.90;;;;;;5073496;28;20197;-68
2023/09/13 08:01:55;;;;;;;30.37;27.37;;;19.20;99.90;;;;;;5073466;28;20232;-67
2023/09/13 08:04:23;;;;;;;29.63;26.43;;;19.20;99.90;;;;;;5073338;28;20725;-68
2023/09/13 08:06:50;;;;;;;29.70;25.53;;;19.10;99.90;;;;;;5073264;28;20254;-69
2023/09/13 08:09:18;;;;;;;29.07;25.17;;;19.10;99.90;;;;;;5073466;28;20258;-68
2023/09/13 08:11:47;;;;;;;28.20;25.20;;;18.90;99.90;;;;;;5073231;28;20203;-72
2023/09/13 08:14:14;;;;;;;29.10;26.00;;;18.90;99.90;;;;;;5073443;28;20168;-67
2023/09/13 08:16:42;;;;;;;28.70;25.13;;;18.70;99.90;;;;;;5073259;28;20182;-68
2023/09/13 08:19:10;;;;;;;26.47;23.67;;;18.70;99.90;;;;;;5073308;28;20195;-68
2023/09/13 08:21:38;;;;;;;29.17;23.37;;;18.60;99.90;;;;;;5072888;28;20265;-68
2023/09/13 08:24:06;;;;;;;24.57;20.73;;;18.50;99.90;;;;;;5071893;28;20677;-70
2023/09/13 08:26:33;;;;;;;22.30;18.83;;;18.40;99.90;;;;;;5073411;28;20175;-67
2023/09/13 08:29:03;;;;;;;18.30;16.40;;;18.40;99.90;;;;;;5072026;28;20690;-68
2023/09/13 08:31:31;;;;;;;18.70;15.70;;;18.30;99.90;;;;;;5072888;28;20176;-68
2023/09/13 08:33:59;;;;;;;19.03;15.20;;;18.20;99.90;;;;;;5071825;28;20213;-67
2023/09/13 08:36:26;;;;;;;17.00;15.03;;;18.10;99.90;;;;;;5073110;28;20645;-68
2023/09/13 08:38:55;;;;;;;16.67;14.53;;;18.00;99.90;;;;;;5071529;28;20179;-67
2023/09/13 08:41:23;;;;;;;22.00;14.90;;;17.90;99.90;;;;;;5072786;28;20191;-69
2023/09/13 08:43:53;;;;;;;21.77;14.50;;;17.70;99.90;;;;;;5072749;28;20235;-67
2023/09/13 08:46:21;;;;;;;17.83;14.40;;;17.60;99.90;;;;;;5072757;28;20199;-68
2023/09/13 08:48:52;;;;;;;14.80;13.30;;;17.50;99.90;;;;;;5072672;28;20176;-67
2023/09/13 08:51:21;;;;;;;15.10;13.47;;;17.50;99.90;;;;;;5074853;28;20594;-68
2023/09/13 08:53:51;;;;;;;19.63;15.37;;;17.40;99.90;;;;;;5077048;28;20535;-67
2023/09/13 08:56:20;;;;;;;18.27;15.40;;;17.30;99.90;;;;;;5076846;28;20567;-68
2023/09/13 08:58:48;;;;;;;19.70;14.83;;;17.20;99.90;;;;;;5076882;28;20184;-66
2023/09/13 09:01:19;;;;;;;18.67;15.27;;;17.00;99.90;;;;;;5076828;28;20643;-67
2023/09/13 09:03:49;;;;;;;19.70;15.60;;;16.90;99.90;;;;;;5075356;28;20323;-69
2023/09/13 09:06:17;;;;;;;20.60;15.27;;;16.90;99.90;;;;;;5076207;28;20255;-70
2023/09/13 09:08:48;;;;;;;20.40;14.97;;;16.80;99.90;;;;;;5076655;28;20186;-67
2023/09/13 09:11:18;;;;;;;17.87;14.00;;;16.70;99.90;;;;;;5076918;28;20164;-70
2023/09/13 09:13:47;;;;;;;16.70;11.80;;;16.60;99.90;;;;;;5076733;28;20176;-68
2023/09/13 09:16:18;;;;;;;16.63;12.07;;;16.60;99.90;;;;;;5076721;28;20172;-68
2023/09/13 09:18:47;;;;;;;15.93;13.23;;;16.60;99.90;;;;;;5076312;28;20197;-66
2023/09/13 09:21:15;;;;;;;16.07;12.53;;;16.50;99.90;;;;;;5076239;28;20295;-68
2023/09/13 09:23:43;;;;;;;14.17;11.70;;;16.40;99.90;;;;;;5076393;28;20208;-69
2023/09/13 09:26:12;;;;;;;15.70;10.83;;;16.30;99.90;;;;;;5076502;28;20168;-67
2023/09/13 09:28:40;;;;;;;11.60;10.03;;;16.30;99.90;;;;;;5076165;28;20591;-67
2023/09/13 09:31:10;;;;;;;16.10;10.57;;;16.20;99.90;;;;;;5076091;28;20689;-68
2023/09/13 09:33:38;;;;;;;18.43;11.97;;;16.10;99.90;;;;;;5076228;28;20531;-66
2023/09/13 09:36:08;;;;;;;13.30;11.33;;;16.10;99.90;;;;;;5076244;28;20168;-69
2023/09/13 09:38:36;;;;;;;15.50;11.60;;;16.00;99.90;;;;;;5076350;28;20183;-68
2023/09/13 09:41:06;;;;;;;16.67;11.43;;;15.90;99.90;;;;;;5076319;28;20660;-71
2023/09/13 09:43:36;;;;;;;17.77;11.60;;;15.80;99.90;;;;;;5076012;28;20617;-71
2023/09/13 09:46:04;;;;;;;17.00;11.67;;;15.80;99.90;;;;;;5074740;28;20207;-71
2023/09/13 09:48:32;;;;;;;16.57;9.40;;;15.70;99.90;;;;;;5074938;28;20188;-73
2023/09/13 09:51:00;;;;;;;14.60;10.70;;;15.70;99.90;;;;;;5076250;28;20168;-71
2023/09/13 09:53:29;;;;;;;17.83;10.93;;;15.60;99.90;;;;;;5075881;28;20180;-71
2023/09/13 09:55:56;;;;;;;17.73;10.67;;;15.60;99.90;;;;;;5074676;28;20191;-72
2023/09/13 09:58:25;;;;;;;17.17;10.10;;;15.50;99.90;;;;;;5075803;28;20210;-69
2023/09/13 10:00:54;;;;;;;14.33;10.87;;;15.40;99.90;;;;;;5074604;28;20203;-72
2023/09/13 10:03:23;;;;;;;16.07;10.53;;;15.30;99.90;;;;;;5074689;28;20286;-71
2023/09/13 10:06:06;;;;;;;16.53;10.60;;;15.30;99.90;;;;;;5075780;28;20186;-71
2023/09/13 10:08:45;;;;;;;14.93;10.27;;;15.30;99.90;;;;;;5075718;28;20259;-73
2023/09/13 10:11:17;;;;;;;12.93;9.93;;;15.30;99.90;;;;;;5075511;28;20668;-69
2023/09/13 10:13:46;;;;;;;14.30;10.27;;;15.20;99.90;;;;;;5075712;28;20207;-72
2023/09/13 10:16:16;;;;;;;12.87;10.03;;;15.20;99.90;;;;;;5075730;28;20172;-72
2023/09/13 10:18:51;;;;;;;13.10;10.00;;;15.10;99.90;;;;;;5075462;28;20172;-72
2023/09/13 10:21:32;;;;;;;15.50;10.80;;;15.00;99.90;;;;;;5073974;28;20227;-68
2023/09/13 10:24:06;;;;;;;17.17;11.27;;;15.00;99.90;;;;;;5074338;28;20692;-72
2023/09/13 10:26:34;;;;;;;16.50;11.83;;;14.90;99.90;;;;;;5074311;28;20188;-73
2023/09/13 10:29:04;;;;;;;16.10;10.80;;;14.90;99.90;;;;;;5074216;28;20180;-69
2023/09/13 10:31:36;;;;;;;15.27;11.60;;;14.80;99.90;;;;;;5073964;28;20234;-72
2023/09/13 10:34:08;;;;;;;16.70;12.07;;;14.80;99.90;;;;;;5073986;28;20191;-68
2023/09/13 10:36:39;;;;;;;15.97;12.57;;;14.70;99.90;;;;;;5075300;28;20198;-73
2023/09/13 10:39:09;;;;;;;16.57;11.63;;;14.60;99.90;;;;;;5075581;28;20183;-72
2023/09/13 10:42:10;;;;;;;18.87;11.93;;;14.60;99.90;;;;;;5075522;28;20664;-68
2023/09/13 10:44:38;;;;;;;17.23;12.57;;;14.60;99.90;;;;;;5071675;28;20276;-71
2023/09/13 10:47:06;;;;;;;18.03;13.43;;;14.50;99.90;;;;;;5075052;28;20684;-71
2023/09/13 10:49:39;;;;;;;19.87;12.60;;;14.50;99.90;;;;;;5075113;28;20188;-72
2023/09/13 10:52:07;;;;;;;15.83;11.63;;;14.50;99.90;;;;;;5056959;28;20192;-72
2023/09/13 10:54:38;;;;;;;19.67;13.10;;;14.40;99.90;;;;;;5075076;28;20192;-73
2023/09/13 10:57:05;;;;;;;18.77;14.37;;;14.40;99.90;;;;;;5074964;28;20203;-73
2023/09/13 10:59:35;;;;;;;23.33;13.97;;;14.40;99.90;;;;;;5074883;28;20168;-70
2023/09/13 11:02:05;;;;;;;24.87;15.23;;;14.40;99.90;;;;;;5073520;28;20190;-73
2023/09/13 11:04:33;;;;;;;21.57;15.53;;;14.30;99.90;;;;;;5073377;28;20581;-72
2023/09/13 11:07:04;;;;;;;19.50;15.80;;;14.30;99.90;;;;;;5073303;28;20645;-73
2023/09/13 11:09:33;;;;;;;25.83;15.17;;;14.20;99.90;;;;;;5074743;28;20203;-72
2023/09/13 11:12:02;;;;;;;21.53;15.00;;;14.10;99.90;;;;;;5074325;28;20646;-68
2023/09/13 11:14:31;;;;;;;22.40;15.50;;;14.10;99.90;;;;;;5073048;28;20184;-69
2023/09/13 11:17:37;;;;;;;25.17;16.27;;;14.10;99.90;;;;;;5074243;28;20214;-73
2023/09/13 11:20:27;;;;;;;26.60;16.10;;;14.00;99.90;;;;;;5072930;28;20202;-73
2023/09/13 11:23:03;;;;;;;27.23;15.70;;;14.00;99.90;;;;;;5072737;28;20233;-68
2023/09/13 11:25:54;;;;;;;27.27;16.20;;;14.00;99.90;;;;;;5074211;28;20194;-68
2023/09/13 11:28:38;;;;;;;23.63;16.07;;;13.80;99.90;;;;;;5074090;28;20251;-68
2023/09/13 11:31:10;;;;;;;28.97;17.10;;;13.80;99.90;;;;;;5073597;28;20191;-70
2023/09/13 11:33:56;;;;;;;24.57;16.93;;;13.70;99.90;;;;;;5072533;28;20181;-69
2023/09/13 11:36:27;;;;;;;23.77;16.70;;;13.70;99.90;;;;;;5073587;28;20187;-66
2023/09/13 11:39:00;;;;;;;20.33;15.97;;;13.60;99.90;;;;;;5056500;28;20670;-68
2023/09/13 11:41:27;;;;;;;23.63;15.83;;;13.60;99.90;;;;;;5073985;28;20666;-71
2023/09/13 11:43:55;;;;;;;24.17;15.77;;;13.50;99.90;;;;;;5073531;28;20291;-67
2023/09/13 11:46:23;;;;;;;21.43;15.87;;;13.50;99.90;;;;;;5073873;28;20174;-68
2023/09/13 11:48:59;;;;;;;21.43;16.43;;;13.50;99.90;;;;;;5073580;28;20179;-72
2023/09/13 11:51:30;;;;;;;23.23;15.67;;;13.50;99.90;;;;;;5073071;28;20252;-72
2023/09/13 11:54:12;;;;;;;27.30;16.90;;;13.50;99.90;;;;;;5073579;28;20172;-69
2023/09/13 11:56:43;;;;;;;20.80;15.90;;;13.40;99.90;;;;;;5073772;28;20171;-69
2023/09/13 11:59:11;;;;;;;23.67;16.17;;;13.30;99.90;;;;;;5072728;28;20210;-68
2023/09/13 12:01:44;;;;;;;21.50;15.93;;;13.30;99.90;;;;;;5073452;28;20240;-71
2023/09/13 12:04:13;;;;;;;22.93;15.10;;;13.40;99.90;;;;;;5073616;28;20610;-68
2023/09/13 12:06:49;;;;;;;26.37;16.37;;;13.30;99.90;;;;;;5073377;28;20226;-70
2023/09/13 12:09:19;;;;;;;29.07;17.33;;;13.30;99.90;;;;;;5072204;28;20189;-69
2023/09/13 12:11:50;;;;;;;23.37;17.03;;;13.20;99.90;;;;;;5072030;28;20198;-67
2023/09/13 12:14:23;;;;;;;25.53;16.90;;;13.10;99.90;;;;;;5073220;28;20219;-70
2023/09/13 12:16:52;;;;;;;21.87;16.10;;;13.10;99.90;;;;;;5073392;28;20212;-67
2023/09/13 12:19:19;;;;;;;22.33;16.60;;;13.10;99.90;;;;;;5073207;28;20176;-68
2023/09/13 12:21:47;;;;;;;22.47;16.13;;;13.10;99.90;;;;;;5071637;28;20231;-68
2023/09/13 12:24:26;;;;;;;20.47;16.70;;;13.10;99.90;;;;;;5071545;28;20211;-72
2023/09/13 12:26:56;;;;;;;21.80;16.80;;;13.00;99.90;;;;;;5072433;28;20190;-69
2023/09/13 12:29:24;;;;;;;22.07;17.17;;;13.00;99.90;;;;;;5073123;28;20607;-72
2023/09/13 12:31:59;;;;;;;21.00;17.50;;;13.00;99.90;;;;;;5073066;28;20228;-69
2023/09/13 12:34:26;;;;;;;22.57;17.50;;;13.00;99.90;;;;;;5073201;28;20178;-67
2023/09/13 12:36:55;;;;;;;23.57;17.10;;;12.90;99.90;;;;;;5072877;28;20179;-67
2023/09/13 12:39:22;;;;;;;21.93;17.33;;;12.90;99.90;;;;;;5072862;28;20175;-69
2023/09/13 12:41:50;;;;;;;28.53;18.10;;;12.90;99.90;;;;;;5072873;28;20208;-69
2023/09/13 12:44:20;;;;;;;27.07;18.27;;;12.90;99.90;;;;;;5072840;28;20245;-72
2023/09/13 12:46:51;;;;;;;25.43;18.60;;;12.80;99.90;;;;;;5072926;28;20648;-68
2023/09/13 12:49:19;;;;;;;22.63;16.47;;;12.70;99.90;;;;;;5073129;28;20177;-70